User: anonymous   Login
Location: Godiavel Galaoual
(15.2485°N, 12.6604°W)
Time: 15:08:40
(UTC+00:00)
Language:

BepiColombo Flyby

On April 10 2020, the Mercury probe BepiColombo will fly past the Earth. The Earth will provide a "gravity assist" and is the first of several flybys of the Earth, Venus and Mercury before it arrives in Mercury orbit in 2025. If you know where to look and live in the right part of the world, you will have a chance to see it through binoculars or a telescope. You can use the two general charts below and the following table to get an idea of whether you will be able to see it or not.

Click on a table row to load a finder chart corresponding to that time, or alternatively, you can go straight to a finder chart for a time near closest approach by clicking here.

Note: All times in the tables and charts are given in your local time, adjusted for daylight savings where appropriate.

Flyby data
Time of closest approachApr 10, 04:24:57
Distance of closest approach19,055 km
Speed at closest approach7.596 km/s
Speed at infinity (rel. to Earth)3.984 km/s

Position Table (click on a row of the table to load a finder chart)

Time Distance (km) Brightness Altitude Azimuth Right ascension Declination Constellation Sun altitude
Apr 9, 20:00:00155,83815.9-25.5°291.6°0h 18.6m11° 52'Pisces-14.0°
Apr 9, 20:30:00148,45115.8-32.8°295.2°0h 16.3m11° 35'Pisces-21.1°
Apr 9, 21:00:00140,95615.7-39.9°299.6°0h 14.0m11° 16'Pisces-28.0°
Apr 9, 21:30:00133,33715.5-46.7°305.4°0h 11.4m10° 55'Pisces-34.8°
Apr 9, 22:00:00125,57515.3-53.1°313.1°0h 8.7m10° 32'Pisces-41.5°
Apr 9, 22:30:00117,65715.1-58.8°323.6°0h 5.7m10° 7'Pisces-47.8°
Apr 9, 23:00:00109,56614.9-63.2°338.0°0h 2.4m9° 38'Pisces-53.8°
Apr 9, 23:30:00101,28714.7-65.5°356.7°23h 58.5m9° 4'Pisces-59.1°
Apr 10, 00:00:0092,80614.5-65.2°17.3°23h 54.0m8° 25'Pegasus-63.4°
Apr 10, 00:30:0084,10614.2-62.0°35.9°23h 48.6m7° 38'Pisces-66.1°
Apr 10, 01:00:0075,17213.8-56.6°50.5°23h 41.8m6° 40'Pisces-66.6°
Apr 10, 01:30:0065,98813.5-49.5°61.7°23h 33.1m5° 26'Pisces-64.9°
Apr 10, 02:00:0056,53913.0-41.1°70.7°23h 21.4m3° 46'Pisces-61.2°
Apr 10, 02:30:0046,81912.4-31.1°78.7°23h 4.9m1° 24'Pisces-56.3°
Apr 10, 03:00:0036,86411.7-18.9°87.1°22h 39.5m-2° 18'Aquarius-50.6°
Apr 10, 03:30:0026,87910.7-2.7°98.2°21h 55.4m-8° 45'Capricornus-44.4°
Apr 10, 04:00:0017,9179.421.3°120.6°20h 21.1m-21° 20'Capricornus-37.9°
Apr 10, 04:30:0014,4328.439.6°185.0°16h 34.8m-34° 57'Scorpius-31.2°
Apr 10, 05:00:0020,2468.916.2°236.3°13h 12.3m-26° 5'Hydra-24.3°
Apr 10, 05:30:0029,771--4.9°253.5°11h 52.0m-17° 5'Crater-17.3°
Apr 10, 06:00:0039,85610.5-19.9°262.5°11h 13.6m-11° 55'Crater-10.2°
Apr 10, 06:30:0049,83511.0-31.8°269.0°10h 51.3m-8° 43'Crater-3.1°
Apr 10, 07:00:0059,57311.4-42.1°274.8°10h 36.6m-6° 33'Sextans4.1°
Apr 10, 07:30:0069,04911.7-51.3°281.2°10h 26.3m-4° 59'Sextans11.3°
Apr 10, 08:00:0078,27012.0-59.7°289.1°10h 18.6m-3° 48'Sextans18.5°
Apr 10, 08:30:0087,24712.3-67.2°300.6°10h 12.6m-2° 51'Sextans25.7°
Apr 10, 09:00:0095,99612.5-73.1°319.7°10h 7.8m-2° 6'Sextans32.9°
Apr 10, 09:30:00104,52912.7-76.1°350.3°10h 3.9m-1° 28'Sextans40.2°
Apr 10, 10:00:00112,85912.9-74.6°23.3°10h 0.5m-0° 56'Sextans47.4°
Apr 10, 10:30:00121,00013.0-69.6°45.2°9h 57.6m-0° 28'Sextans54.6°
Apr 10, 11:00:00128,96513.2-63.2°57.8°9h 55.0m-0° 4'Sextans61.8°
Apr 10, 11:30:00136,76713.3-56.1°65.7°9h 52.6m0° 17'Sextans68.8°
Apr 10, 12:00:00144,42213.4-48.7°71.1°9h 50.4m0° 36'Sextans75.5°
 

DLR